Time;durP1;ratioP1;P1;durP2;ratioP2;P2;SDS_P1;SDS_P2;PMS_P1;PMS_P2;Temp;Humidity;BMP_temperature;BMP_pressure;BME280_temperature;BME280_humidity;BME280_pressure;Samples;Min_cycle;Max_cycle;Signal;HPM_P1;HPM_P2
2021/06/29 00:01:11;;;;;;;;;0.00;0.00;;;;;19.10;57.33;100857.00;5123079;27;45284;-67
2021/06/29 00:03:37;;;;;;;;;0.00;0.00;;;;;19.08;57.41;100843.03;5123288;27;46199;-68
2021/06/29 00:06:03;;;;;;;;;0.00;0.00;;;;;19.07;57.76;100846.72;5107472;27;45251;-68
2021/06/29 00:08:28;;;;;;;;;0.00;0.00;;;;;19.05;57.44;100846.06;5112028;27;45314;-67
2021/06/29 00:10:54;;;;;;;;;0.00;0.00;;;;;19.06;57.65;100845.03;5123543;27;45220;-67
2021/06/29 00:13:21;;;;;;;;;0.00;0.00;;;;;19.02;57.20;100843.72;5114294;27;46485;-66
2021/06/29 00:15:47;;;;;;;;;0.00;0.00;;;;;18.98;57.90;100850.38;5102462;27;45278;-67
2021/06/29 00:18:13;;;;;;;;;0.00;0.00;;;;;18.92;58.21;100841.28;5112380;27;45324;-67
2021/06/29 00:20:38;;;;;;;;;0.00;0.00;;;;;18.92;57.86;100848.41;5123310;27;45420;-66
2021/06/29 00:23:04;;;;;;;;;0.00;0.00;;;;;18.89;58.49;100840.78;5104419;27;47974;-67
2021/06/29 00:25:30;;;;;;;;;0.00;0.00;;;;;18.87;58.73;100850.75;5104506;27;45370;-67
2021/06/29 00:27:55;;;;;;;;;0.00;0.00;;;;;18.87;58.40;100853.41;5104574;27;45201;-67
2021/06/29 00:30:21;;;;;;;;;0.00;0.00;;;;;18.89;59.06;100848.75;5123421;27;45183;-67
2021/06/29 00:32:46;;;;;;;;;1.00;1.00;;;;;18.88;58.56;100845.28;5122705;27;45371;-67
2021/06/29 00:35:13;;;;;;;;;0.00;0.00;;;;;18.89;58.59;100840.78;5122883;27;45213;-66
2021/06/29 00:37:39;;;;;;;;;0.00;0.00;;;;;18.88;58.67;100837.28;5123196;27;45228;-66
2021/06/29 00:40:06;;;;;;;;;0.00;0.00;;;;;18.89;58.67;100838.09;5123036;27;45352;-67
2021/06/29 00:42:31;;;;;;;;;0.00;0.00;;;;;18.88;59.05;100837.28;5104391;27;48154;-67
2021/06/29 00:44:57;;;;;;;;;0.00;0.00;;;;;18.90;59.45;100831.78;5123063;27;45404;-67
2021/06/29 00:47:22;;;;;;;;;0.00;0.00;;;;;18.89;59.06;100825.63;5123288;27;45225;-67
2021/06/29 00:49:48;;;;;;;;;0.00;0.00;;;;;18.90;59.41;100827.31;5104425;27;45382;-66
2021/06/29 00:52:15;;;;;;;;;0.00;0.00;;;;;18.90;59.14;100831.78;5104011;27;46991;-66
2021/06/29 00:54:41;;;;;;;;;0.00;0.00;;;;;18.90;59.45;100826.44;5122640;27;45406;-66
2021/06/29 00:57:09;;;;;;;;;0.00;0.00;;;;;18.87;59.15;100827.63;5104150;27;45278;-66
2021/06/29 00:59:34;;;;;;;;;0.00;0.00;;;;;18.85;59.68;100824.31;5103657;27;45298;-66
2021/06/29 01:02:00;;;;;;;;;0.00;0.00;;;;;18.85;59.78;100825.16;5122080;27;46615;-66
2021/06/29 01:04:25;;;;;;;;;0.00;0.00;;;;;18.83;59.16;100820.97;5101863;27;45490;-66
2021/06/29 01:06:52;;;;;;;;;0.00;0.00;;;;;18.85;59.34;100821.66;5092169;27;45421;-66
2021/06/29 01:09:19;;;;;;;;;0.00;0.00;;;;;18.84;59.57;100822.66;5122490;27;45474;-67
2021/06/29 01:11:45;;;;;;;;;0.00;0.00;;;;;18.79;60.06;100812.53;5103457;27;47294;-67
2021/06/29 01:14:15;;;;;;;;;0.00;0.00;;;;;18.76;60.10;100806.69;5108265;27;45215;-67
2021/06/29 01:16:41;;;;;;;;;0.00;0.00;;;;;18.73;60.10;100804.38;5103719;27;45392;-66
2021/06/29 01:19:07;;;;;;;;;0.00;0.00;;;;;18.72;60.56;100802.69;5100314;27;45480;-67
2021/06/29 01:21:37;;;;;;;;;0.00;0.00;;;;;18.71;60.54;100795.72;5101936;27;45457;-66
2021/06/29 01:24:07;;;;;;;;;0.00;0.00;;;;;18.73;59.80;100799.06;5101766;27;45644;-67
2021/06/29 01:26:37;;;;;;;;;0.00;0.00;;;;;18.69;60.16;100801.22;5104112;27;45339;-67
2021/06/29 01:29:06;;;;;;;;;0.00;0.00;;;;;18.66;60.52;100793.59;5122451;27;45510;-67
2021/06/29 01:31:33;;;;;;;;;0.00;0.00;;;;;18.65;59.87;100800.72;5122194;27;46610;-67
2021/06/29 01:33:59;;;;;;;;;0.00;0.00;;;;;18.63;59.96;100797.41;5122304;27;45296;-67
2021/06/29 01:36:28;;;;;;;;;0.00;0.00;;;;;18.65;60.09;100802.56;5122480;27;45353;-67
2021/06/29 01:38:53;;;;;;;;;0.00;0.00;;;;;18.63;60.61;100810.69;5122548;27;45443;-67
2021/06/29 01:41:22;;;;;;;;;6.00;6.00;;;;;18.61;60.54;100806.56;5122091;27;46126;-67
2021/06/29 01:44:11;;;;;;;;;0.00;0.00;;;;;18.60;60.79;100804.91;5103677;27;45346;-67
2021/06/29 01:46:36;;;;;;;;;0.00;0.00;;;;;18.59;60.20;100798.72;5121480;27;45314;-68
2021/06/29 01:49:02;;;;;;;;;0.00;0.00;;;;;18.60;60.43;100802.25;5103941;27;45280;-67
2021/06/29 01:51:27;;;;;;;;;0.00;0.00;;;;;18.58;60.37;100798.91;5103726;27;48042;-66
2021/06/29 01:53:54;;;;;;;;;0.00;0.00;;;;;18.59;61.23;100798.72;5122469;27;45247;-66
2021/06/29 01:56:27;;;;;;;;;0.00;0.00;;;;;18.58;61.25;100794.44;5122081;27;45366;-66
2021/06/29 01:58:59;;;;;;;;;0.00;0.00;;;;;18.56;61.24;100791.09;5122607;27;45317;-66
2021/06/29 02:01:24;;;;;;;;;0.00;0.00;;;;;18.51;60.82;100790.78;5103079;27;48154;-67
2021/06/29 02:03:50;;;;;;;;;0.00;0.00;;;;;18.51;60.79;100789.94;5122337;27;45561;-66
2021/06/29 02:06:16;;;;;;;;;0.00;0.00;;;;;18.44;61.65;100789.78;5104399;27;45325;-67
2021/06/29 02:08:42;;;;;;;;;0.00;0.00;;;;;18.46;61.04;100787.78;5102053;27;45214;-66
2021/06/29 02:11:08;;;;;;;;;0.00;0.00;;;;;18.44;61.00;100787.13;5101740;27;46338;-67
2021/06/29 02:13:33;;;;;;;;;0.00;0.00;;;;;18.43;61.32;100780.16;5104634;27;45210;-66
2021/06/29 02:16:00;;;;;;;;;0.00;0.00;;;;;18.44;60.93;100779.16;5122979;27;45476;-66
2021/06/29 02:18:26;;;;;;;;;0.00;0.00;;;;;18.40;61.13;100778.69;5125561;27;45449;-67
2021/06/29 02:20:51;;;;;;;;;0.00;0.00;;;;;18.40;61.14;100783.16;5125193;27;46327;-67
2021/06/29 02:23:17;;;;;;;;;0.00;0.00;;;;;18.40;61.39;100777.81;5125317;27;45310;-67
2021/06/29 02:25:43;;;;;;;;;0.00;0.00;;;;;18.42;61.05;100774.03;5106815;27;45309;-66
2021/06/29 02:28:09;;;;;;;;;0.00;0.00;;;;;18.45;61.63;100780.81;5106950;27;45440;-67
2021/06/29 02:30:35;;;;;;;;;0.00;0.00;;;;;18.46;61.18;100782.47;5106585;27;46799;-67
2021/06/29 02:33:01;;;;;;;;;1.00;0.00;;;;;18.49;61.31;100784.81;5106401;27;45235;-67
2021/06/29 02:35:26;;;;;;;;;0.00;0.00;;;;;18.45;61.72;100775.50;5125213;27;45209;-67
2021/06/29 02:37:52;;;;;;;;;0.00;0.00;;;;;18.47;62.09;100781.50;5106777;27;45667;-67
2021/06/29 02:40:17;;;;;;;;;0.00;0.00;;;;;18.49;61.33;100783.97;5124912;27;46411;-67
2021/06/29 02:42:43;;;;;;;;;0.00;0.00;;;;;18.44;62.04;100781.81;5125028;27;45320;-67
2021/06/29 02:45:09;;;;;;;;;0.00;0.00;;;;;18.39;61.71;100776.19;5106579;27;45262;-67
2021/06/29 02:47:36;;;;;;;;;0.00;0.00;;;;;18.36;62.02;100788.00;5125021;27;45335;-67
2021/06/29 02:50:06;;;;;;;;;0.00;0.00;;;;;18.29;62.28;100786.16;5124910;27;45447;-67
2021/06/29 02:52:32;;;;;;;;;0.00;0.00;;;;;18.27;62.67;100783.66;5124823;27;45305;-66
2021/06/29 02:54:58;;;;;;;;;0.00;0.00;;;;;18.18;63.41;100782.03;5124566;27;45252;-66
2021/06/29 02:57:24;;;;;;;;;0.00;0.00;;;;;18.08;63.54;100776.03;5105938;27;45303;-66
2021/06/29 02:59:49;;;;;;;;;0.00;0.00;;;;;18.03;63.94;100773.88;5124387;27;45350;-67
2021/06/29 03:02:14;;;;;;;;;0.00;0.00;;;;;18.00;64.04;100766.25;5105947;27;45268;-66
2021/06/29 03:04:40;;;;;;;;;0.00;0.00;;;;;17.96;63.62;100764.94;5120676;27;45277;-66
2021/06/29 03:07:05;;;;;;;;;0.00;0.00;;;;;17.90;63.69;100755.78;5115041;27;45484;-67
2021/06/29 03:09:30;;;;;;;;;0.00;0.00;;;;;17.85;63.65;100752.81;5124332;27;45372;-66
2021/06/29 03:11:56;;;;;;;;;0.00;0.00;;;;;17.82;64.83;100747.84;5124643;27;45349;-66
2021/06/29 03:14:21;;;;;;;;;0.00;0.00;;;;;17.80;64.28;100742.66;5110384;27;45326;-66
2021/06/29 03:16:46;;;;;;;;;0.00;0.00;;;;;17.78;64.91;100744.66;5124490;27;45339;-66
2021/06/29 03:19:12;;;;;;;;;0.00;0.00;;;;;17.74;64.95;100739.84;5124238;27;46284;-67
2021/06/29 03:21:37;;;;;;;;;0.00;0.00;;;;;17.71;65.05;100741.00;5124622;27;45274;-67
2021/06/29 03:24:03;;;;;;;;;0.00;0.00;;;;;17.70;65.15;100743.81;5123683;27;45341;-66
2021/06/29 03:26:29;;;;;;;;;0.00;0.00;;;;;17.70;64.56;100735.84;5124568;27;45316;-67
2021/06/29 03:28:54;;;;;;;;;0.00;0.00;;;;;17.66;64.60;100732.69;5123887;27;46461;-67
2021/06/29 03:31:20;;;;;;;;;0.00;0.00;;;;;17.67;65.09;100734.34;5105109;27;45337;-67
2021/06/29 03:33:45;;;;;;;;;0.00;0.00;;;;;17.72;64.52;100726.72;5105710;27;45350;-67
2021/06/29 03:36:11;;;;;;;;;0.00;0.00;;;;;17.73;64.56;100736.34;5124616;27;45225;-67
2021/06/29 03:38:36;;;;;;;;;0.00;0.00;;;;;17.83;64.07;100741.50;5124249;27;45493;-67
2021/06/29 03:41:02;;;;;;;;;0.00;0.00;;;;;17.87;64.06;100748.16;5124611;27;45240;-67
2021/06/29 03:43:28;;;;;;;;;0.00;0.00;;;;;17.87;63.99;100742.03;5105085;27;45433;-67
2021/06/29 03:45:53;;;;;;;;;0.00;0.00;;;;;17.86;63.81;100740.34;5105342;27;45255;-67
2021/06/29 03:48:18;;;;;;;;;0.00;0.00;;;;;17.87;63.94;100734.06;5123667;27;45497;-67
2021/06/29 03:50:44;;;;;;;;;0.75;0.75;;;;;17.87;63.75;100739.38;5123856;27;45182;-67
2021/06/29 03:53:09;;;;;;;;;0.00;0.00;;;;;17.83;63.76;100737.03;5123649;27;45441;-67
2021/06/29 03:55:35;;;;;;;;;0.00;0.00;;;;;17.83;63.58;100731.72;5105420;27;45432;-67
2021/06/29 03:58:00;;;;;;;;;0.00;0.00;;;;;17.87;63.35;100744.69;5123409;27;46189;-67
2021/06/29 04:00:26;;;;;;;;;0.00;0.00;;;;;17.85;63.51;100742.19;5105213;27;45492;-67
2021/06/29 04:02:51;;;;;;;;;0.00;0.00;;;;;17.88;63.58;100739.19;5123119;27;45603;-67
2021/06/29 04:05:17;;;;;;;;;0.00;0.00;;;;;17.88;63.23;100744.50;5105468;27;45410;-68
2021/06/29 04:07:47;;;;;;;;;0.00;0.00;;;;;17.87;63.35;100739.38;5123386;27;46071;-68
2021/06/29 04:10:13;;;;;;;;;0.00;0.00;;;;;17.85;63.11;100744.00;5123634;27;45345;-67
2021/06/29 04:12:38;;;;;;;;;0.00;0.00;;;;;17.86;63.22;100746.50;5100191;27;45362;-68
2021/06/29 04:15:07;;;;;;;;;0.00;0.00;;;;;17.84;63.17;100751.16;5114591;27;45304;-67
2021/06/29 04:17:32;;;;;;;;;0.00;0.00;;;;;17.82;62.94;100748.66;5104376;27;46922;-67
2021/06/29 04:19:58;;;;;;;;;0.00;0.00;;;;;17.79;63.34;100751.59;5093957;27;45348;-68
2021/06/29 04:22:23;;;;;;;;;0.00;0.00;;;;;17.78;63.44;100743.81;5084001;27;45755;-67
2021/06/29 04:24:48;;;;;;;;;0.00;0.00;;;;;17.76;62.92;100736.00;5113934;27;45454;-67
2021/06/29 04:27:14;;;;;;;;;0.00;0.00;;;;;17.74;63.27;100731.88;5123111;27;45565;-67
2021/06/29 04:29:39;;;;;;;;;0.00;0.00;;;;;17.76;63.24;100730.69;5104633;27;45348;-67
2021/06/29 04:32:05;;;;;;;;;0.00;0.00;;;;;17.84;62.65;100721.94;5122932;27;45410;-67
2021/06/29 04:34:30;;;;;;;;;0.00;0.00;;;;;17.89;63.03;100732.06;5104224;27;45406;-66
2021/06/29 04:36:56;;;;;;;;;0.00;0.00;;;;;17.93;62.81;100739.53;5122470;27;46281;-66
2021/06/29 04:39:21;;;;;;;;;0.00;0.00;;;;;17.96;62.63;100728.56;5122967;27;45316;-66
2021/06/29 04:41:46;;;;;;;;;0.00;0.00;;;;;18.01;62.98;100733.34;5122790;27;45228;-68
2021/06/29 04:44:12;;;;;;;;;0.00;0.00;;;;;18.04;62.69;100733.03;5104571;27;45270;-67
2021/06/29 04:46:37;;;;;;;;;0.00;0.00;;;;;18.07;62.69;100735.34;5122449;27;45361;-67
2021/06/29 04:49:03;;;;;;;;;0.00;0.00;;;;;18.08;62.48;100728.19;5122793;27;45418;-67
2021/06/29 04:51:28;;;;;;;;;0.00;0.00;;;;;18.12;62.62;100726.88;5122888;27;45311;-67
2021/06/29 04:53:53;;;;;;;;;0.00;0.00;;;;;18.17;62.43;100724.56;5123065;27;45234;-66
2021/06/29 04:56:19;;;;;;;;;0.00;0.00;;;;;18.26;62.23;100728.03;5122427;27;45334;-68
2021/06/29 04:58:52;;;;;;;;;0.00;0.00;;;;;18.30;61.86;100724.84;5122541;27;45171;-67
2021/06/29 05:01:19;;;;;;;;;0.00;0.00;;;;;18.32;61.84;100720.19;5122430;27;45223;-66
2021/06/29 05:03:44;;;;;;;;;0.00;0.00;;;;;18.41;61.74;100718.34;5104231;27;45224;-67
2021/06/29 05:06:10;;;;;;;;;0.00;0.00;;;;;18.51;61.73;100723.44;5103810;27;46179;-67
2021/06/29 05:08:35;;;;;;;;;0.00;0.00;;;;;18.61;61.26;100716.94;5102278;27;45235;-67
2021/06/29 05:11:00;;;;;;;;;0.00;0.00;;;;;18.73;60.93;100733.34;5120242;27;45744;-67
2021/06/29 05:13:26;;;;;;;;;0.00;0.00;;;;;18.82;60.51;100744.84;5100567;27;45243;-67
2021/06/29 05:15:51;;;;;;;;;0.00;0.00;;;;;18.91;60.73;100732.31;5119485;27;46435;-67
2021/06/29 05:18:17;;;;;;;;;0.00;0.00;;;;;19.00;60.21;100736.59;5103802;27;45447;-67
2021/06/29 05:20:42;;;;;;;;;0.75;0.75;;;;;19.08;60.25;100744.53;5103852;27;45337;-67
2021/06/29 05:23:08;;;;;;;;;0.00;0.00;;;;;19.15;60.16;100745.47;5122667;27;45435;-67
2021/06/29 05:25:33;;;;;;;;;0.00;0.00;;;;;19.25;59.83;100745.28;5122059;27;46613;-68
2021/06/29 05:27:58;;;;;;;;;0.00;0.00;;;;;19.40;59.58;100756.00;5122475;27;45469;-67
2021/06/29 05:30:24;;;;;;;;;0.00;0.00;;;;;19.48;59.58;100755.94;5122070;27;45261;-67
2021/06/29 05:32:49;;;;;;;;;0.00;0.00;;;;;19.55;59.36;100766.72;5102962;27;45339;-67
2021/06/29 05:35:15;;;;;;;;;0.00;0.00;;;;;19.56;58.83;100765.72;5102903;27;46994;-67
2021/06/29 05:37:40;;;;;;;;;0.00;0.00;;;;;19.54;58.77;100771.22;5103530;27;45568;-67
2021/06/29 05:40:06;;;;;;;;;0.00;0.00;;;;;19.53;58.97;100772.22;5103582;27;45443;-67
2021/06/29 05:42:32;;;;;;;;;0.00;0.00;;;;;19.54;58.38;100771.22;5122077;27;45521;-67
2021/06/29 05:44:57;;;;;;;;;0.00;0.00;;;;;19.52;58.72;100767.06;5121752;27;46499;-67
2021/06/29 05:47:22;;;;;;;;;0.00;0.00;;;;;19.54;58.58;100770.38;5123944;27;45251;-67
2021/06/29 05:49:49;;;;;;;;;0.00;0.00;;;;;19.55;58.74;100778.22;5125080;27;45186;-67
2021/06/29 05:52:15;;;;;;;;;0.00;0.00;;;;;19.53;58.37;100776.72;5125561;27;45236;-67
2021/06/29 05:54:42;;;;;;;;;0.00;0.00;;;;;19.51;58.58;100771.56;5106420;27;48110;-67
2021/06/29 05:57:08;;;;;;;;;0.00;0.00;;;;;19.49;58.21;100778.09;5125170;27;45510;-67
2021/06/29 05:59:33;;;;;;;;;0.00;0.00;;;;;19.53;58.64;100779.41;5125201;27;45335;-67
2021/06/29 06:01:58;;;;;;;;;0.00;0.00;;;;;19.56;58.63;100773.69;5124943;27;45708;-67
2021/06/29 06:04:24;;;;;;;;;0.00;0.00;;;;;19.58;58.03;100782.34;5121712;27;45336;-67
2021/06/29 06:06:49;;;;;;;;;0.00;0.00;;;;;19.58;58.15;100779.69;5114380;27;45663;-67
2021/06/29 06:09:14;;;;;;;;;0.00;0.00;;;;;19.58;58.02;100783.16;5105971;27;45509;-67
2021/06/29 06:11:40;;;;;;;;;0.00;0.00;;;;;19.52;58.19;100785.72;5125462;27;45389;-68
2021/06/29 06:14:05;;;;;;;;;0.00;0.00;;;;;19.52;58.47;100785.72;5110893;27;46507;-68
2021/06/29 06:16:31;;;;;;;;;0.00;0.00;;;;;19.51;58.15;100779.56;5124772;27;45371;-68
2021/06/29 06:18:56;;;;;;;;;0.00;0.00;;;;;19.54;57.97;100786.38;5125235;27;45216;-68
2021/06/29 06:21:21;;;;;;;;;0.00;0.00;;;;;19.53;58.38;100788.22;5106157;27;45445;-67
2021/06/29 06:23:47;;;;;;;;;0.00;0.00;;;;;19.56;58.47;100792.34;5124268;27;46368;-67
2021/06/29 06:26:12;;;;;;;;;0.00;0.00;;;;;19.62;58.28;100796.97;5124520;27;45201;-67
2021/06/29 06:28:37;;;;;;;;;0.00;0.00;;;;;19.58;58.60;100799.16;5124500;27;45233;-68
2021/06/29 06:31:03;;;;;;;;;0.00;0.00;;;;;19.59;58.14;100794.66;5124626;27;45468;-68
2021/06/29 06:33:28;;;;;;;;;0.00;0.00;;;;;19.58;58.33;100787.69;5105308;27;48260;-69
2021/06/29 06:35:53;;;;;;;;;0.00;0.00;;;;;19.54;58.64;100784.53;5105615;27;45497;-68
2021/06/29 06:38:19;;;;;;;;;0.00;0.00;;;;;19.61;58.74;100789.97;5106145;27;45488;-68
2021/06/29 06:40:44;;;;;;;;;0.00;0.00;;;;;19.63;58.44;100791.47;5124818;27;45203;-67
2021/06/29 06:43:10;;;;;;;;;0.00;0.00;;;;;19.68;58.81;100790.94;5124020;27;46448;-68
2021/06/29 06:45:36;;;;;;;;;0.00;0.00;;;;;19.71;58.65;100792.47;5124448;27;45264;-67
2021/06/29 06:48:01;;;;;;;;;0.00;0.00;;;;;19.71;58.89;100782.63;5124441;27;45331;-68
2021/06/29 06:50:27;;;;;;;;;0.00;0.00;;;;;19.75;58.90;100791.91;5124176;27;45597;-67
2021/06/29 06:52:52;;;;;;;;;0.00;0.00;;;;;19.74;59.24;100782.28;5123788;27;46412;-66
2021/06/29 06:55:19;;;;;;;;;0.00;0.00;;;;;19.85;58.84;100800.50;5105452;27;45782;-67
2021/06/29 06:57:45;;;;;;;;;0.00;0.00;;;;;19.88;58.59;100796.66;5100548;27;45270;-68
2021/06/29 07:00:11;;;;;;;;;0.00;0.00;;;;;19.87;58.67;100792.34;5103504;27;45513;-67
2021/06/29 07:02:37;;;;;;;;;0.00;0.00;;;;;19.83;58.63;100786.53;5102604;27;45451;-67
2021/06/29 07:05:07;;;;;;;;;0.00;0.00;;;;;19.84;58.62;100792.69;5094496;27;45166;-67
2021/06/29 07:07:33;;;;;;;;;0.00;0.00;;;;;19.84;59.08;100790.84;5081722;27;45330;-68
2021/06/29 07:09:58;;;;;;;;;0.00;0.00;;;;;19.87;59.09;100803.81;5082831;28;45743;-68
2021/06/29 07:12:24;;;;;;;;;0.00;0.00;;;;;19.91;59.29;100800.78;5096243;27;46181;-68
2021/06/29 07:14:50;;;;;;;;;0.00;0.00;;;;;19.94;58.98;100805.78;5089758;27;45411;-67
2021/06/29 07:17:15;;;;;;;;;0.00;0.00;;;;;19.92;58.84;100805.13;5102934;27;45249;-68
2021/06/29 07:19:41;;;;;;;;;1.00;1.00;;;;;19.91;58.57;100812.28;5101832;27;45520;-67
2021/06/29 07:22:06;;;;;;;;;0.00;0.00;;;;;19.86;58.61;100810.16;5102464;27;46663;-67
2021/06/29 07:24:31;;;;;;;;;0.00;0.00;;;;;19.84;58.41;100812.16;5101594;27;45275;-68
2021/06/29 07:26:57;;;;;;;;;0.00;0.00;;;;;19.84;59.21;100812.16;5102931;27;45350;-67
2021/06/29 07:29:22;;;;;;;;;0.00;0.00;;;;;19.87;58.44;100814.50;5103265;27;45600;-66
2021/06/29 07:31:48;;;;;;;;;0.00;0.00;;;;;19.85;59.10;100803.19;5101760;27;45451;-67
2021/06/29 07:34:13;;;;;;;;;0.00;0.00;;;;;19.88;59.19;100808.13;5103072;27;45186;-67
2021/06/29 07:36:39;;;;;;;;;0.00;0.00;;;;;19.94;59.03;100805.78;5101655;27;45302;-67
2021/06/29 07:39:05;;;;;;;;;0.00;0.00;;;;;20.00;58.65;100810.38;5102896;27;45423;-68
2021/06/29 07:41:31;;;;;;;;;0.00;0.00;;;;;20.07;59.29;100800.66;5103020;27;45434;-67
2021/06/29 07:43:56;;;;;;;;;30.00;30.00;;;;;20.20;58.85;100811.53;5102352;27;45419;-67
2021/06/29 07:46:24;;;;;;;;;0.00;0.00;;;;;20.35;58.34;100803.56;5102474;27;45421;-68
2021/06/29 07:48:49;;;;;;;;;0.00;0.00;;;;;20.55;57.84;100803.06;5102959;27;45269;-67
2021/06/29 07:51:14;;;;;;;;;0.00;0.00;;;;;20.75;56.92;100808.69;5100947;27;46994;-67
2021/06/29 07:53:41;;;;;;;;;0.00;0.00;;;;;20.95;56.39;100799.13;5102182;27;45414;-67
2021/06/29 07:56:07;;;;;;;;;0.00;0.00;;;;;21.08;56.29;100801.13;5101106;27;45471;-68
2021/06/29 07:58:32;;;;;;;;;0.00;0.00;;;;;21.25;56.65;100797.25;5101805;27;45257;-68
2021/06/29 08:00:57;;;;;;;;;0.00;0.00;;;;;21.49;56.32;100804.09;5101364;27;45367;-67
2021/06/29 08:03:23;;;;;;;;;0.00;0.00;;;;;21.73;55.92;100795.88;5100809;27;45314;-67
2021/06/29 08:05:48;;;;;;;;;0.00;0.00;;;;;22.05;55.33;100807.91;5088958;27;45431;-68
2021/06/29 08:08:14;;;;;;;;;0.00;0.00;;;;;22.27;54.08;100816.78;5082261;27;45230;-67
2021/06/29 08:10:39;;;;;;;;;0.00;0.00;;;;;22.40;54.27;100800.81;5081686;28;45213;-67
2021/06/29 08:13:06;;;;;;;;;0.00;0.00;;;;;22.47;54.20;100801.69;5081837;27;45332;-68
2021/06/29 08:15:31;;;;;;;;;0.00;0.00;;;;;22.48;53.48;100810.53;5080914;28;45469;-67
2021/06/29 08:17:57;;;;;;;;;0.00;0.00;;;;;22.47;52.75;100814.25;5088385;27;45492;-67
2021/06/29 08:20:22;;;;;;;;;0.00;0.00;;;;;22.38;52.81;100810.88;5087146;27;48009;-68
2021/06/29 08:22:50;;;;;;;;;0.00;0.00;;;;;22.30;53.05;100822.56;5102220;27;45350;-69
2021/06/29 08:25:16;;;;;;;;;0.00;0.00;;;;;22.22;52.65;100819.16;5101849;27;45261;-67
2021/06/29 08:27:42;;;;;;;;;0.00;0.00;;;;;22.12;52.81;100820.31;5100788;27;45173;-67
2021/06/29 08:30:10;;;;;;;;;0.00;0.00;;;;;22.06;52.09;100823.78;5101843;27;46161;-68
2021/06/29 08:32:37;;;;;;;;;0.00;0.00;;;;;22.03;52.74;100826.00;5102196;27;45371;-67
2021/06/29 08:35:08;;;;;;;;;0.00;0.00;;;;;22.06;51.98;100825.63;5102182;27;45357;-68
2021/06/29 08:37:33;;;;;;;;;0.00;0.00;;;;;22.14;52.19;100825.50;5102761;27;45175;-67
2021/06/29 08:39:59;;;;;;;;;0.00;0.00;;;;;22.24;52.09;100823.31;5100521;27;46038;-68
2021/06/29 08:42:25;;;;;;;;;0.00;0.00;;;;;22.30;51.66;100816.38;5100338;27;45297;-66
2021/06/29 08:44:51;;;;;;;;;0.00;0.00;;;;;22.38;51.13;100820.78;5102261;27;45420;-67
2021/06/29 08:47:16;;;;;;;;;0.00;0.00;;;;;22.45;50.44;100825.13;5102024;27;45417;-68
2021/06/29 08:49:42;;;;;;;;;0.00;0.00;;;;;22.50;50.27;100814.69;5101574;27;45562;-68
2021/06/29 08:52:09;;;;;;;;;0.00;0.00;;;;;22.61;50.70;100815.97;5099791;27;45424;-71
2021/06/29 08:54:35;;;;;;;;;0.00;0.00;;;;;22.76;50.01;100815.03;5099973;27;45443;-68
2021/06/29 08:57:02;;;;;;;;;0.00;0.00;;;;;22.89;49.98;100821.31;5100440;27;45431;-70
2021/06/29 08:59:28;;;;;;;;;0.00;0.00;;;;;22.96;49.79;100823.16;5099808;27;46982;-65
2021/06/29 09:01:53;;;;;;;;;0.00;0.00;;;;;22.95;49.43;100819.66;5101369;27;45253;-64
2021/06/29 09:04:44;;;;;;;;;0.00;0.00;;;;;22.97;49.50;100824.81;5099666;27;45327;-64
2021/06/29 09:07:17;;;;;;;;;0.00;0.00;;;;;23.02;49.11;100823.22;5079836;28;45431;-64
2021/06/29 09:09:57;;;;;;;;;0.00;0.00;;;;;23.12;49.33;100821.00;5080621;28;45507;-64
2021/06/29 09:12:42;;;;;;;;;0.00;0.00;;;;;23.26;47.99;100821.06;5094017;27;45633;-65
2021/06/29 09:15:37;;;;;;;;;0.00;0.00;;;;;23.38;48.75;100814.09;5090329;27;45274;-65
2021/06/29 09:18:05;;;;;;;;;0.00;0.00;;;;;23.48;47.56;100816.41;5091115;27;45334;-64
2021/06/29 09:20:33;;;;;;;;;0.00;0.00;;;;;23.49;48.13;100818.88;5099987;27;46503;-65
2021/06/29 09:23:09;;;;;;;;;0.00;0.00;;;;;23.63;48.22;100817.06;5095874;27;45314;-65
2021/06/29 09:25:35;;;;;;;;;0.00;0.00;;;;;23.76;47.62;100816.28;5108226;27;45265;-64
2021/06/29 09:28:00;;;;;;;;;0.00;0.00;;;;;23.83;47.11;100816.28;5108470;27;45339;-65
2021/06/29 09:30:43;;;;;;;;;0.00;0.00;;;;;23.88;46.73;100817.31;5107820;27;45418;-64
2021/06/29 09:33:12;;;;;;;;;0.00;0.00;;;;;23.79;47.37;100812.38;5108400;27;45441;-64
2021/06/29 09:35:40;;;;;;;;;0.00;0.00;;;;;23.68;46.83;100806.53;5106374;27;45225;-64
2021/06/29 09:38:06;;;;;;;;;0.00;0.00;;;;;23.60;46.87;100812.09;5107634;27;45247;-65
2021/06/29 09:40:33;;;;;;;;;0.00;0.00;;;;;23.61;47.09;100819.13;5105917;27;48500;-65
2021/06/29 09:43:12;;;;;;;;;0.00;0.00;;;;;23.69;46.83;100802.84;5089472;27;45769;-65
2021/06/29 09:45:45;;;;;;;;;0.00;0.00;;;;;23.94;46.88;100808.44;5107444;27;45271;-64
2021/06/29 09:48:12;;;;;;;;;0.00;0.00;;;;;24.22;47.12;100815.47;5107994;27;45454;-66
2021/06/29 09:50:46;;;;;;;;;0.00;0.00;;;;;24.51;45.51;100810.72;5108100;27;45450;-65
2021/06/29 09:53:27;;;;;;;;;0.00;0.00;;;;;24.67;45.79;100807.59;5106223;27;45173;-66
2021/06/29 09:56:02;;;;;;;;;0.00;0.00;;;;;24.79;44.77;100812.31;5110965;27;45388;-68
2021/06/29 09:58:31;;;;;;;;;0.00;0.00;;;;;24.85;44.15;100806.09;5109920;27;45275;-66
2021/06/29 10:00:58;;;;;;;;;0.00;0.00;;;;;24.99;43.54;100815.75;5108808;27;47654;-67
2021/06/29 10:03:24;;;;;;;;;0.00;0.00;;;;;25.12;43.08;100810.34;5128114;27;45437;-65
2021/06/29 10:05:51;;;;;;;;;0.00;0.00;;;;;25.25;42.85;100812.16;5108922;27;45386;-68
2021/06/29 10:08:29;;;;;;;;;0.00;0.00;;;;;25.46;42.69;100802.13;5128101;27;45482;-62
2021/06/29 10:11:06;;;;;;;;;0.00;0.00;;;;;25.72;43.26;100810.03;5127759;27;45373;-65
2021/06/29 10:14:02;;;;;;;;;0.00;0.00;;;;;26.11;40.93;100809.97;5117408;27;45342;-65
2021/06/29 10:16:34;;;;;;;;;0.00;0.00;;;;;26.60;39.91;100811.78;5109051;27;45300;-67
2021/06/29 10:21:38;;;;;;;;;0.00;0.00;;;;;28.00;39.18;100796.47;5127832;27;45446;-78
2021/06/29 10:24:07;;;;;;;;;0.00;0.00;;;;;28.49;38.55;100804.38;5109034;27;45255;-71
2021/06/29 10:26:34;;;;;;;;;0.00;0.00;;;;;28.69;34.98;100804.00;5128546;27;45285;-65
2021/06/29 10:29:07;;;;;;;;;0.00;0.00;;;;;28.92;36.31;100796.88;5127995;27;45411;-65
2021/06/29 10:31:34;;;;;;;;;0.00;0.00;;;;;29.31;36.05;100806.09;5127591;27;46083;-66
2021/06/29 10:34:07;;;;;;;;;0.00;0.00;;;;;29.83;35.21;100797.00;5105551;27;45386;-61
2021/06/29 10:36:34;;;;;;;;;0.00;0.00;;;;;30.18;34.68;100798.63;5105532;27;45370;-67
2021/06/29 10:39:00;;;;;;;;;0.00;0.00;;;;;30.28;34.20;100796.06;5124364;27;45503;-66
2021/06/29 10:41:33;;;;;;;;;0.00;0.00;;;;;30.42;32.81;100796.56;5124014;27;46813;-64
2021/06/29 10:44:00;;;;;;;;;0.00;0.00;;;;;30.40;34.16;100790.56;5123451;27;45280;-70
2021/06/29 10:46:28;;;;;;;;;0.00;0.00;;;;;30.24;32.53;100782.19;5123115;27;45317;-70
2021/06/29 10:49:17;;;;;;;;;0.00;0.00;;;;;29.87;33.87;100779.19;5123582;27;45237;-69
2021/06/29 10:51:42;;;;;;;;;0.00;0.00;;;;;29.33;33.71;100789.59;5123544;27;46640;-65
2021/06/29 10:54:40;;;;;;;;;0.00;0.00;;;;;28.76;33.99;100793.88;5123979;27;45304;-66
2021/06/29 10:57:07;;;;;;;;;0.00;0.00;;;;;28.22;34.66;100785.91;5105492;27;45336;-66
2021/06/29 10:59:35;;;;;;;;;0.00;0.00;;;;;27.81;34.46;100787.63;5124051;27;45557;-64
2021/06/29 11:02:01;;;;;;;;;0.00;0.00;;;;;27.49;34.34;100792.47;5123141;27;46749;-65
2021/06/29 11:04:53;;;;;;;;;0.00;0.00;;;;;27.17;35.24;100784.59;5101829;27;45952;-66
2021/06/29 11:07:30;;;;;;;;;0.00;0.00;;;;;26.81;35.44;100790.84;5095951;27;45553;-65
2021/06/29 11:09:58;;;;;;;;;0.00;0.00;;;;;26.57;35.89;100792.59;5111467;27;45399;-66
2021/06/29 11:12:31;;;;;;;;;0.00;0.00;;;;;26.38;36.47;100797.09;5121213;27;45430;-66
2021/06/29 11:14:59;;;;;;;;;0.00;0.00;;;;;26.33;37.44;100788.88;5112500;27;45282;-66
2021/06/29 11:17:46;;;;;;;;;0.00;0.00;;;;;26.40;36.98;100795.00;5122475;27;45315;-65
2021/06/29 11:20:13;;;;;;;;;0.00;0.00;;;;;26.34;36.54;100791.31;5092132;27;45468;-66
2021/06/29 11:22:51;;;;;;;;;0.00;0.00;;;;;26.24;37.22;100795.56;5121748;27;45313;-65
2021/06/29 11:25:53;;;;;;;;;0.00;0.00;;;;;26.32;37.31;100779.94;5123373;27;45335;-64
2021/06/29 11:28:36;;;;;;;;;0.00;0.00;;;;;26.31;36.84;100786.38;5123574;27;45229;-64